createdAt,value
2019-05-07T00:00:43.873Z,89.30
2019-05-07T00:03:12.462Z,89.40
2019-05-07T00:05:42.758Z,89.80
2019-05-07T00:08:12.221Z,89.90
2019-05-07T00:10:42.479Z,90.10
2019-05-07T00:13:12.815Z,90.10
2019-05-07T00:15:41.896Z,90.10
2019-05-07T00:18:12.593Z,90.20
2019-05-07T00:20:42.281Z,90.20
2019-05-07T00:23:13.071Z,90.20
2019-05-07T00:25:42.153Z,90.10
2019-05-07T00:28:12.215Z,90.00
2019-05-07T00:30:42.490Z,89.80
2019-05-07T00:33:13.138Z,89.80
2019-05-07T00:35:43.071Z,89.70
2019-05-07T00:38:13.161Z,89.70
2019-05-07T00:40:59.287Z,89.80
2019-05-07T00:43:29.280Z,90.00
2019-05-07T00:46:02.357Z,90.10
2019-05-07T00:48:32.896Z,90.30
2019-05-07T00:51:18.986Z,90.40
2019-05-07T00:53:47.430Z,90.40
2019-05-07T00:56:15.944Z,90.10
2019-05-07T00:58:44.391Z,90.10
2019-05-07T01:01:13.139Z,90.20
2019-05-07T01:03:42.402Z,90.20
2019-05-07T01:06:12.876Z,90.30
2019-05-07T01:08:43.068Z,90.30
2019-05-07T01:11:13.193Z,90.40
2019-05-07T01:13:43.148Z,90.40
2019-05-07T01:16:12.891Z,90.40
2019-05-07T01:18:42.171Z,90.60
2019-05-07T01:21:13.063Z,90.60
2019-05-07T01:23:42.796Z,90.70
2019-05-07T01:26:12.465Z,90.90
2019-05-07T01:28:59.286Z,91.00
2019-05-07T01:31:34.274Z,91.20
2019-05-07T01:34:22.940Z,91.20
2019-05-07T01:36:52.342Z,91.00
2019-05-07T01:39:23.022Z,91.20
2019-05-07T01:41:52.425Z,91.00
2019-05-07T01:44:22.808Z,91.30
2019-05-07T01:46:52.888Z,91.30
2019-05-07T01:49:23.838Z,91.10
2019-05-07T01:51:52.974Z,91.20
2019-05-07T01:54:23.700Z,91.00
2019-05-07T01:56:52.255Z,91.10
2019-05-07T01:59:22.451Z,91.00
2019-05-07T02:01:52.825Z,91.10
2019-05-07T02:04:35.032Z,91.00
2019-05-07T02:07:05.107Z,91.00
2019-05-07T02:09:44.122Z,91.10
2019-05-07T02:12:17.147Z,91.20
2019-05-07T02:14:45.569Z,91.20
2019-05-07T02:17:14.019Z,91.10
2019-05-07T02:19:42.591Z,91.10
2019-05-07T02:22:13.262Z,91.20
2019-05-07T02:24:43.253Z,91.20
2019-05-07T02:27:12.627Z,91.10
2019-05-07T02:29:43.064Z,91.10
2019-05-07T02:32:13.287Z,91.20
2019-05-07T02:34:44.129Z,91.10
2019-05-07T02:37:13.376Z,91.00
2019-05-07T02:39:46.344Z,90.90
2019-05-07T02:42:14.864Z,91.10
2019-05-07T02:45:04.170Z,91.30
2019-05-07T02:47:33.515Z,91.40
2019-05-07T02:50:03.754Z,91.50
2019-05-07T02:52:53.321Z,91.40
2019-05-07T02:55:23.165Z,91.40
2019-05-07T02:57:54.046Z,91.40
2019-05-07T03:00:24.107Z,91.40
2019-05-07T03:02:53.144Z,91.40
2019-05-07T03:05:23.090Z,91.40
2019-05-07T03:07:53.617Z,91.20
2019-05-07T03:10:23.734Z,91.30
2019-05-07T03:12:53.691Z,91.20
2019-05-07T03:15:24.222Z,91.20
2019-05-07T03:17:53.763Z,91.30
2019-05-07T03:20:24.128Z,91.30
2019-05-07T03:22:53.893Z,91.40
2019-05-07T03:25:39.116Z,91.50
2019-05-07T03:28:07.541Z,91.50
2019-05-07T03:30:45.057Z,91.50
2019-05-07T03:33:16.080Z,91.40
2019-05-07T03:35:46.775Z,91.40
2019-05-07T03:38:14.035Z,91.40
2019-05-07T03:40:44.834Z,91.50
2019-05-07T03:43:13.795Z,91.50
2019-05-07T03:45:50.164Z,91.60
2019-05-07T03:48:23.425Z,91.50
2019-05-07T03:50:52.899Z,91.60
2019-05-07T03:53:23.170Z,91.60
2019-05-07T03:55:53.691Z,91.50
2019-05-07T03:58:23.500Z,91.50
2019-05-07T04:00:53.665Z,91.70
2019-05-07T04:03:24.535Z,91.70
2019-05-07T04:05:53.166Z,91.80
2019-05-07T04:08:23.622Z,91.90
2019-05-07T04:10:53.850Z,92.10
2019-05-07T04:13:23.840Z,92.20
2019-05-07T04:15:52.735Z,92.20
2019-05-07T04:18:23.688Z,92.20
2019-05-07T04:20:53.971Z,92.20
2019-05-07T04:23:23.362Z,92.10
2019-05-07T04:25:54.312Z,92.10
2019-05-07T04:28:43.663Z,92.20
2019-05-07T04:31:14.162Z,92.10
2019-05-07T04:33:44.027Z,92.20
2019-05-07T04:36:14.422Z,92.20
2019-05-07T04:38:43.987Z,92.10
2019-05-07T04:41:13.874Z,92.30
2019-05-07T04:43:44.183Z,92.40
2019-05-07T04:46:14.384Z,92.50
2019-05-07T04:48:43.841Z,92.40
2019-05-07T04:51:14.372Z,92.50
2019-05-07T04:53:43.146Z,92.40
2019-05-07T04:56:14.053Z,92.40
2019-05-07T04:58:43.299Z,92.60
2019-05-07T05:01:13.983Z,92.70
2019-05-07T05:03:43.925Z,92.80
2019-05-07T05:06:13.687Z,93.00
2019-05-07T05:08:43.500Z,93.00
2019-05-07T05:11:12.875Z,93.10
2019-05-07T05:13:44.363Z,93.50
2019-05-07T05:16:27.104Z,94.80
2019-05-07T05:18:56.643Z,94.30
2019-05-07T05:21:32.394Z,92.70
2019-05-07T05:24:07.962Z,91.10
2019-05-07T05:26:36.415Z,90.20
2019-05-07T05:29:06.116Z,88.00
2019-05-07T05:31:34.557Z,85.50
2019-05-07T05:34:02.998Z,83.20
2019-05-07T05:36:33.047Z,81.00
2019-05-07T05:39:02.541Z,78.30
2019-05-07T05:41:34.136Z,74.40
2019-05-07T05:44:12.712Z,72.80
2019-05-07T05:46:42.867Z,71.00
2019-05-07T05:49:11.857Z,69.00
2019-05-07T05:51:45.313Z,68.70
2019-05-07T05:54:31.847Z,65.80
2019-05-07T05:57:02.662Z,64.50
2019-05-07T05:59:48.155Z,63.40
2019-05-07T06:02:12.174Z,60.50
2019-05-07T06:04:48.148Z,59.80
2019-05-07T06:07:27.304Z,58.80
2019-05-07T06:10:02.566Z,56.80
2019-05-07T06:12:43.979Z,56.40
2019-05-07T06:15:14.197Z,55.80
2019-05-07T06:17:56.395Z,55.70
2019-05-07T06:20:42.790Z,54.80
2019-05-07T06:23:22.427Z,54.90
2019-05-07T06:25:49.083Z,53.50
2019-05-07T06:28:17.535Z,53.00
2019-05-07T06:30:45.966Z,52.70
2019-05-07T06:33:14.420Z,51.00
2019-05-07T06:35:43.060Z,51.30
2019-05-07T06:38:12.601Z,50.20
2019-05-07T06:40:57.921Z,51.50
2019-05-07T06:43:32.743Z,50.80
2019-05-07T06:46:04.682Z,50.70
2019-05-07T06:48:41.902Z,47.50
2019-05-07T06:51:03.297Z,47.10
2019-05-07T06:53:33.658Z,49.90
2019-05-07T06:56:04.196Z,48.20
2019-05-07T06:58:34.419Z,48.40
2019-05-07T07:01:22.806Z,49.30
2019-05-07T07:03:59.255Z,49.30
2019-05-07T07:06:33.277Z,48.90
2019-05-07T07:09:15.545Z,46.70
2019-05-07T07:11:45.744Z,48.00
2019-05-07T07:14:15.871Z,49.80
2019-05-07T07:16:44.438Z,50.40
2019-05-07T07:19:12.883Z,49.70
2019-05-07T07:21:42.169Z,49.20
2019-05-07T07:24:12.680Z,50.30
2019-05-07T07:26:42.186Z,50.60
2019-05-07T07:29:12.792Z,51.40
2019-05-07T07:31:42.969Z,50.20
2019-05-07T07:34:12.941Z,51.70
2019-05-07T07:36:43.363Z,50.70
2019-05-07T07:39:12.721Z,51.30
2019-05-07T07:41:52.330Z,52.10
2019-05-07T07:44:25.059Z,52.10
2019-05-07T07:46:53.502Z,52.50
2019-05-07T07:49:22.306Z,52.00
2019-05-07T07:51:52.565Z,52.40
2019-05-07T07:54:22.618Z,51.80
2019-05-07T07:56:56.195Z,52.50
2019-05-07T07:59:27.540Z,52.00
2019-05-07T08:02:01.884Z,52.00
2019-05-07T08:04:32.023Z,52.60
2019-05-07T08:07:05.250Z,51.80
2019-05-07T08:09:35.440Z,53.10
2019-05-07T08:12:04.719Z,53.10
2019-05-07T08:14:33.564Z,52.70
2019-05-07T08:17:03.803Z,53.80
2019-05-07T08:19:32.901Z,54.20
2019-05-07T08:22:02.795Z,55.10
2019-05-07T08:24:32.167Z,55.10
2019-05-07T08:27:02.290Z,55.90
2019-05-07T08:29:32.474Z,55.50
2019-05-07T08:32:03.736Z,55.20
2019-05-07T08:34:33.804Z,55.30
2019-05-07T08:37:08.420Z,54.50
2019-05-07T08:39:36.853Z,55.70
2019-05-07T08:42:05.436Z,54.10
2019-05-07T08:44:47.624Z,54.10
2019-05-07T08:47:17.716Z,53.70
2019-05-07T08:49:46.154Z,53.60
2019-05-07T08:52:14.684Z,53.30
2019-05-07T08:54:43.144Z,52.80
2019-05-07T08:57:12.201Z,53.20
2019-05-07T08:59:58.419Z,52.00
2019-05-07T09:02:17.290Z,52.80
2019-05-07T09:04:45.810Z,52.40
2019-05-07T09:07:14.480Z,52.40
2019-05-07T09:09:43.010Z,51.90
2019-05-07T09:12:12.421Z,51.20
2019-05-07T09:14:42.621Z,51.90
2019-05-07T09:17:12.812Z,52.80
2019-05-07T09:19:50.883Z,52.40
2019-05-07T09:22:12.742Z,52.40
2019-05-07T09:24:42.420Z,52.70
2019-05-07T09:27:12.874Z,53.40
2019-05-07T09:29:52.090Z,53.70
2019-05-07T09:32:25.108Z,54.60
2019-05-07T09:34:58.020Z,54.20
2019-05-07T09:37:32.541Z,54.80
2019-05-07T09:40:02.824Z,54.60
2019-05-07T09:42:33.123Z,55.20
2019-05-07T09:45:01.954Z,55.20
2019-05-07T09:47:32.548Z,55.30
2019-05-07T09:50:07.000Z,56.00
2019-05-07T09:52:32.147Z,56.10
2019-05-07T09:55:11.065Z,56.00
2019-05-07T09:57:32.465Z,56.10
2019-05-07T10:00:02.261Z,54.30
2019-05-07T10:02:31.986Z,54.50
2019-05-07T10:05:02.356Z,55.00
2019-05-07T10:07:32.419Z,54.60
2019-05-07T10:10:03.131Z,54.50
2019-05-07T10:12:35.896Z,54.40
2019-05-07T10:15:06.719Z,54.80
2019-05-07T10:17:42.653Z,55.10
2019-05-07T10:20:21.114Z,54.20
2019-05-07T10:22:42.877Z,54.40
2019-05-07T10:25:12.231Z,54.00
2019-05-07T10:27:43.215Z,53.50
2019-05-07T10:30:12.857Z,52.30
2019-05-07T10:32:42.640Z,52.70
2019-05-07T10:35:12.822Z,52.10
2019-05-07T10:37:43.023Z,51.30
2019-05-07T10:40:12.404Z,51.40
2019-05-07T10:42:43.025Z,51.00
2019-05-07T10:45:17.303Z,51.20
2019-05-07T10:47:47.438Z,50.60
2019-05-07T10:50:36.476Z,50.00
2019-05-07T10:52:57.142Z,50.20
2019-05-07T10:55:25.590Z,49.60
2019-05-07T10:57:54.048Z,50.60
2019-05-07T11:00:25.216Z,50.90
2019-05-07T11:02:53.732Z,51.00
2019-05-07T11:05:22.239Z,50.30
2019-05-07T11:07:50.855Z,51.30
2019-05-07T11:10:21.810Z,51.10
2019-05-07T11:12:51.580Z,51.50
2019-05-07T11:15:21.619Z,52.00
2019-05-07T11:18:06.839Z,52.80
2019-05-07T11:20:46.476Z,53.10
2019-05-07T11:23:05.503Z,52.70
2019-05-07T11:25:34.208Z,53.20
2019-05-07T11:28:02.927Z,53.20
2019-05-07T11:30:32.097Z,53.30
2019-05-07T11:33:02.494Z,53.30
2019-05-07T11:35:31.924Z,53.90
2019-05-07T11:38:02.614Z,54.80
2019-05-07T11:40:51.798Z,55.90
2019-05-07T11:43:24.631Z,56.30
2019-05-07T11:46:03.559Z,56.70
2019-05-07T11:48:36.185Z,57.20
2019-05-07T11:51:05.072Z,57.40
2019-05-07T11:53:35.187Z,57.70
2019-05-07T11:56:03.612Z,57.20
2019-05-07T11:58:32.621Z,56.80
2019-05-07T12:01:04.035Z,56.40
2019-05-07T12:03:32.637Z,56.50
2019-05-07T12:06:02.018Z,57.00
2019-05-07T12:08:40.924Z,55.60
2019-05-07T12:11:02.383Z,55.90
2019-05-07T12:13:32.372Z,55.90
2019-05-07T12:16:03.056Z,55.30
2019-05-07T12:18:31.993Z,55.60
2019-05-07T12:21:03.759Z,55.80
2019-05-07T12:23:33.021Z,55.80
2019-05-07T12:26:02.257Z,55.60
2019-05-07T12:28:33.399Z,55.00
2019-05-07T12:31:06.246Z,55.50
2019-05-07T12:33:45.079Z,55.20
2019-05-07T12:36:15.258Z,55.20
2019-05-07T12:38:43.759Z,54.60
2019-05-07T12:41:33.190Z,55.10
2019-05-07T12:44:04.167Z,54.90
2019-05-07T12:46:33.689Z,54.70
2019-05-07T12:49:03.183Z,54.50
2019-05-07T12:51:37.937Z,53.40
2019-05-07T12:54:08.859Z,54.60
2019-05-07T12:56:37.298Z,53.20
2019-05-07T12:59:05.888Z,53.10
2019-05-07T13:01:38.518Z,53.50
2019-05-07T13:04:08.607Z,53.10
2019-05-07T13:06:38.688Z,52.80
2019-05-07T13:09:07.198Z,52.50
2019-05-07T13:11:35.688Z,52.40
2019-05-07T13:14:04.385Z,52.30
2019-05-07T13:16:32.896Z,51.80
2019-05-07T13:19:01.883Z,51.30
2019-05-07T13:21:31.947Z,51.00
2019-05-07T13:24:02.605Z,50.60
2019-05-07T13:26:32.187Z,50.00
2019-05-07T13:29:02.492Z,50.70
2019-05-07T13:31:32.860Z,50.20
2019-05-07T13:34:02.998Z,50.50
2019-05-07T13:36:33.576Z,50.30
2019-05-07T13:39:06.423Z,49.60
2019-05-07T13:41:36.657Z,50.40
2019-05-07T13:44:24.760Z,49.70
2019-05-07T13:46:55.326Z,48.90
2019-05-07T13:49:23.991Z,49.50
2019-05-07T13:52:03.197Z,48.90
2019-05-07T13:54:22.910Z,49.00
2019-05-07T13:56:52.550Z,48.70
2019-05-07T13:59:22.380Z,47.50
2019-05-07T14:01:52.595Z,47.60
2019-05-07T14:04:22.293Z,47.20
2019-05-07T14:06:52.960Z,48.50
2019-05-07T14:09:24.377Z,49.40
2019-05-07T14:11:54.623Z,49.20
2019-05-07T14:14:23.148Z,48.70
2019-05-07T14:16:52.959Z,47.80
2019-05-07T14:19:22.526Z,47.90
2019-05-07T14:21:52.576Z,48.60
2019-05-07T14:24:22.330Z,48.50
2019-05-07T14:26:52.797Z,47.90
2019-05-07T14:29:24.472Z,47.80
2019-05-07T14:31:58.043Z,47.10
2019-05-07T14:34:34.356Z,47.10
2019-05-07T14:37:14.510Z,47.40
2019-05-07T14:39:42.968Z,47.90
2019-05-07T14:42:15.852Z,47.80
2019-05-07T14:44:47.534Z,48.00
2019-05-07T14:47:19.280Z,47.90
2019-05-07T14:49:48.353Z,47.90
2019-05-07T14:52:28.972Z,48.20
2019-05-07T14:54:47.167Z,48.80
2019-05-07T14:57:15.714Z,49.10
2019-05-07T14:59:44.694Z,49.50
2019-05-07T15:02:13.387Z,48.30
2019-05-07T15:04:41.994Z,48.60
2019-05-07T15:07:12.017Z,49.10
2019-05-07T15:09:42.395Z,48.80
2019-05-07T15:12:12.428Z,48.80
2019-05-07T15:14:42.181Z,49.40
2019-05-07T15:17:15.436Z,50.70
2019-05-07T15:19:43.884Z,52.40
2019-05-07T15:22:26.072Z,54.90
2019-05-07T15:24:54.604Z,57.70
2019-05-07T15:27:23.669Z,59.90
2019-05-07T15:29:52.656Z,62.80
2019-05-07T15:32:21.807Z,65.70
2019-05-07T15:34:52.536Z,66.90
2019-05-07T15:37:20.793Z,68.50
2019-05-07T15:39:49.258Z,70.00
2019-05-07T15:42:17.722Z,70.80
2019-05-07T15:44:46.244Z,71.50
2019-05-07T15:47:19.066Z,72.70
2019-05-07T15:49:47.510Z,73.00
2019-05-07T15:52:22.044Z,73.10
2019-05-07T15:54:52.099Z,74.10
2019-05-07T15:57:24.643Z,74.50
2019-05-07T15:59:55.332Z,74.60
2019-05-07T16:02:28.118Z,74.10
2019-05-07T16:04:57.870Z,74.50
2019-05-07T16:07:26.295Z,74.40
2019-05-07T16:09:54.762Z,74.40
2019-05-07T16:12:23.695Z,75.30
2019-05-07T16:14:55.049Z,75.60
2019-05-07T16:17:25.186Z,75.50
2019-05-07T16:19:55.171Z,75.90
2019-05-07T16:22:25.536Z,76.50
2019-05-07T16:24:54.050Z,76.90
2019-05-07T16:27:22.537Z,76.60
2019-05-07T16:29:52.685Z,77.20
2019-05-07T16:32:23.933Z,76.90
2019-05-07T16:34:52.762Z,77.80
2019-05-07T16:37:21.700Z,78.30
2019-05-07T16:39:50.284Z,78.00
2019-05-07T16:42:21.801Z,78.60
2019-05-07T16:44:52.170Z,78.70
2019-05-07T16:47:22.683Z,78.40
2019-05-07T16:49:50.735Z,79.00
2019-05-07T16:52:19.178Z,79.00
2019-05-07T16:54:47.636Z,78.40
2019-05-07T16:57:33.939Z,78.60
2019-05-07T17:00:02.991Z,78.90
2019-05-07T17:02:49.101Z,78.70
2019-05-07T17:05:22.722Z,78.90
2019-05-07T17:07:55.187Z,79.20
2019-05-07T17:10:23.618Z,79.20
2019-05-07T17:12:52.549Z,79.30
2019-05-07T17:15:24.307Z,80.00
2019-05-07T17:18:02.820Z,79.60
2019-05-07T17:20:32.839Z,79.20
2019-05-07T17:23:02.998Z,78.90
2019-05-07T17:25:37.346Z,78.10
2019-05-07T17:28:07.526Z,78.30
2019-05-07T17:30:37.762Z,77.40
2019-05-07T17:33:06.861Z,77.40
2019-05-07T17:35:36.847Z,77.50
2019-05-07T17:38:09.614Z,77.80
2019-05-07T17:40:35.492Z,78.10
2019-05-07T17:43:04.106Z,77.70
2019-05-07T17:45:35.674Z,77.30
2019-05-07T17:48:04.490Z,77.00
2019-05-07T17:50:34.658Z,77.20
2019-05-07T17:53:03.107Z,76.30
2019-05-07T17:55:33.198Z,75.80
2019-05-07T17:58:02.046Z,76.20
2019-05-07T18:00:32.718Z,75.40
2019-05-07T18:03:18.710Z,75.70
2019-05-07T18:05:47.141Z,75.60
2019-05-07T18:08:15.588Z,75.50
2019-05-07T18:10:44.027Z,75.10
2019-05-07T18:13:12.478Z,75.30
2019-05-07T18:15:42.787Z,74.90
2019-05-07T18:18:12.861Z,75.00
2019-05-07T18:20:42.200Z,75.00
2019-05-07T18:23:16.834Z,75.30
2019-05-07T18:25:42.820Z,75.10
2019-05-07T18:28:12.318Z,75.20
2019-05-07T18:30:41.171Z,75.30
2019-05-07T18:33:13.797Z,75.30
2019-05-07T18:35:43.159Z,75.20
2019-05-07T18:38:11.951Z,75.30
2019-05-07T18:40:42.124Z,75.40
2019-05-07T18:43:12.237Z,75.60
2019-05-07T18:45:42.448Z,75.50
2019-05-07T18:48:13.180Z,76.00
2019-05-07T18:50:42.081Z,75.70
2019-05-07T18:53:12.246Z,75.50
2019-05-07T18:55:42.373Z,75.70
2019-05-07T18:58:13.201Z,75.90
2019-05-07T19:00:42.925Z,76.00
2019-05-07T19:03:12.708Z,76.50
2019-05-07T19:05:43.878Z,76.60
2019-05-07T19:08:13.506Z,76.90
2019-05-07T19:10:42.920Z,77.00
2019-05-07T19:13:11.589Z,77.20
2019-05-07T19:15:43.132Z,77.30
2019-05-07T19:18:12.172Z,77.60
2019-05-07T19:20:42.273Z,77.70
2019-05-07T19:23:13.755Z,77.90
2019-05-07T19:25:42.679Z,78.20
2019-05-07T19:28:15.075Z,78.30
2019-05-07T19:30:43.386Z,78.70
2019-05-07T19:33:12.290Z,78.60
2019-05-07T19:35:41.900Z,78.60
2019-05-07T19:38:10.546Z,78.60
2019-05-07T19:40:38.992Z,78.90
2019-05-07T19:43:09.124Z,79.00
2019-05-07T19:45:37.563Z,79.20
2019-05-07T19:48:06.020Z,79.40
2019-05-07T19:50:34.466Z,79.90
2019-05-07T19:53:03.057Z,80.20
2019-05-07T19:55:33.184Z,80.70
2019-05-07T19:58:03.270Z,81.00
2019-05-07T20:00:32.751Z,81.90
2019-05-07T20:03:07.439Z,82.20
2019-05-07T20:05:37.372Z,82.40
2019-05-07T20:08:06.097Z,82.70
2019-05-07T20:10:37.715Z,83.00
2019-05-07T20:13:06.158Z,83.60
2019-05-07T20:15:35.062Z,83.60
2019-05-07T20:18:06.298Z,83.90
2019-05-07T20:20:34.751Z,84.20
2019-05-07T20:23:03.212Z,84.40
2019-05-07T20:25:33.202Z,84.30
2019-05-07T20:28:02.259Z,84.50
2019-05-07T20:30:32.806Z,84.40
2019-05-07T20:33:02.951Z,84.40
2019-05-07T20:35:32.569Z,84.40
2019-05-07T20:38:02.928Z,84.80
2019-05-07T20:40:32.463Z,84.90
2019-05-07T20:43:01.970Z,85.00
2019-05-07T20:45:32.034Z,84.90
2019-05-07T20:48:02.583Z,84.80
2019-05-07T20:50:33.089Z,85.00
2019-05-07T20:53:02.039Z,84.60
2019-05-07T20:55:38.047Z,84.80
2019-05-07T20:58:06.546Z,84.80
2019-05-07T21:00:35.010Z,84.80
2019-05-07T21:03:23.867Z,84.70
2019-05-07T21:05:53.306Z,85.10
2019-05-07T21:08:22.750Z,85.40
2019-05-07T21:10:57.658Z,85.50
2019-05-07T21:13:31.392Z,85.60
2019-05-07T21:15:56.272Z,86.10
2019-05-07T21:18:24.717Z,86.50
2019-05-07T21:20:54.076Z,86.20
2019-05-07T21:23:23.391Z,86.10
2019-05-07T21:25:52.687Z,86.00
2019-05-07T21:28:21.633Z,86.20
2019-05-07T21:30:52.147Z,86.50
2019-05-07T21:33:22.620Z,87.00
2019-05-07T21:35:52.343Z,86.90
2019-05-07T21:38:22.395Z,87.00
2019-05-07T21:40:50.806Z,87.10
2019-05-07T21:43:19.232Z,87.30
2019-05-07T21:45:47.683Z,87.70
2019-05-07T21:48:16.131Z,88.10
2019-05-07T21:50:44.645Z,88.20
2019-05-07T21:53:22.743Z,88.20
2019-05-07T21:56:03.054Z,88.20
2019-05-07T21:58:48.166Z,88.30
2019-05-07T22:01:18.325Z,88.20
2019-05-07T22:03:52.401Z,88.30
2019-05-07T22:06:22.748Z,88.70
2019-05-07T22:08:54.460Z,88.80
2019-05-07T22:11:22.992Z,88.80
2019-05-07T22:13:57.672Z,88.70
2019-05-07T22:16:26.120Z,89.10
2019-05-07T22:18:54.578Z,89.20
2019-05-07T22:21:23.015Z,89.30
2019-05-07T22:23:59.694Z,89.50
2019-05-07T22:26:28.148Z,89.40
2019-05-07T22:28:56.595Z,89.70
2019-05-07T22:31:32.519Z,89.80
2019-05-07T22:34:22.229Z,89.80
2019-05-07T22:36:52.483Z,89.90
2019-05-07T22:39:22.087Z,89.90
2019-05-07T22:41:50.694Z,89.90
2019-05-07T22:44:19.148Z,90.10
2019-05-07T22:46:47.631Z,90.00
2019-05-07T22:49:16.058Z,90.10
2019-05-07T22:51:45.683Z,90.20
2019-05-07T22:54:14.132Z,90.30
2019-05-07T22:56:59.210Z,90.40
2019-05-07T22:59:27.655Z,90.40
2019-05-07T23:01:56.103Z,90.50
2019-05-07T23:04:24.551Z,90.60
2019-05-07T23:06:53.041Z,90.60
2019-05-07T23:09:22.392Z,90.40
2019-05-07T23:11:52.587Z,90.50
2019-05-07T23:14:22.579Z,90.60
2019-05-07T23:16:52.645Z,90.50
2019-05-07T23:19:22.118Z,90.60
2019-05-07T23:21:52.095Z,90.70
2019-05-07T23:24:22.570Z,90.60
2019-05-07T23:26:53.279Z,90.80
2019-05-07T23:29:22.474Z,90.60
2019-05-07T23:31:52.786Z,90.60
2019-05-07T23:34:22.072Z,90.70
2019-05-07T23:36:53.119Z,90.60
2019-05-07T23:39:22.829Z,90.60
2019-05-07T23:41:58.793Z,90.70
2019-05-07T23:44:27.230Z,90.70
2019-05-07T23:46:55.666Z,90.70
2019-05-07T23:49:24.122Z,90.70
2019-05-07T23:51:53.227Z,90.80
2019-05-07T23:54:23.050Z,90.70
2019-05-07T23:57:05.477Z,90.70
2019-05-07T23:59:22.364Z,90.90
